sensor_id;sensor_type;location;lat;lon;timestamp;P1;durP1;ratioP1;P2;durP2;ratioP2
57105;SDS011;62662;56.788;23.942;2022-09-12T00:01:52;5.15;;;3.90;;
57105;SDS011;62662;56.788;23.942;2022-09-12T00:04:19;6.22;;;4.20;;
57105;SDS011;62662;56.788;23.942;2022-09-12T00:06:46;4.30;;;3.88;;
57105;SDS011;62662;56.788;23.942;2022-09-12T00:09:13;4.45;;;3.83;;
57105;SDS011;62662;56.788;23.942;2022-09-12T00:11:42;7.80;;;4.20;;
57105;SDS011;62662;56.788;23.942;2022-09-12T00:14:11;6.35;;;3.92;;
57105;SDS011;62662;56.788;23.942;2022-09-12T00:16:40;5.00;;;4.00;;
57105;SDS011;62662;56.788;23.942;2022-09-12T00:19:08;4.05;;;3.65;;
57105;SDS011;62662;56.788;23.942;2022-09-12T00:21:36;4.22;;;3.45;;
57105;SDS011;62662;56.788;23.942;2022-09-12T00:24:05;3.58;;;3.28;;
57105;SDS011;62662;56.788;23.942;2022-09-12T00:26:33;3.80;;;3.40;;
57105;SDS011;62662;56.788;23.942;2022-09-12T00:28:59;4.72;;;3.60;;
57105;SDS011;62662;56.788;23.942;2022-09-12T00:31:26;3.47;;;3.17;;
57105;SDS011;62662;56.788;23.942;2022-09-12T00:33:54;3.85;;;3.38;;
57105;SDS011;62662;56.788;23.942;2022-09-12T00:36:24;4.53;;;3.50;;
57105;SDS011;62662;56.788;23.942;2022-09-12T00:38:53;4.78;;;3.22;;
57105;SDS011;62662;56.788;23.942;2022-09-12T00:41:21;3.55;;;3.25;;
57105;SDS011;62662;56.788;23.942;2022-09-12T00:43:54;3.75;;;3.38;;
57105;SDS011;62662;56.788;23.942;2022-09-12T00:51:52;3.83;;;3.42;;
57105;SDS011;62662;56.788;23.942;2022-09-12T00:54:35;3.83;;;3.17;;
57105;SDS011;62662;56.788;23.942;2022-09-12T00:57:08;3.90;;;3.45;;
57105;SDS011;62662;56.788;23.942;2022-09-12T00:59:38;4.63;;;3.80;;
57105;SDS011;62662;56.788;23.942;2022-09-12T01:02:09;5.45;;;3.95;;
57105;SDS011;62662;56.788;23.942;2022-09-12T01:04:37;7.15;;;4.00;;
57105;SDS011;62662;56.788;23.942;2022-09-12T01:07:06;4.63;;;3.50;;
57105;SDS011;62662;56.788;23.942;2022-09-12T01:09:34;6.13;;;4.65;;
57105;SDS011;62662;56.788;23.942;2022-09-12T01:12:03;6.07;;;4.25;;
57105;SDS011;62662;56.788;23.942;2022-09-12T01:14:31;6.97;;;4.53;;
57105;SDS011;62662;56.788;23.942;2022-09-12T01:16:58;5.93;;;4.28;;
57105;SDS011;62662;56.788;23.942;2022-09-12T01:24:48;5.25;;;3.35;;
57105;SDS011;62662;56.788;23.942;2022-09-12T01:36:31;4.85;;;3.50;;
57105;SDS011;62662;56.788;23.942;2022-09-12T01:39:54;4.90;;;3.50;;
57105;SDS011;62662;56.788;23.942;2022-09-12T01:50:24;5.15;;;3.20;;
57105;SDS011;62662;56.788;23.942;2022-09-12T01:53:04;3.80;;;3.40;;
57105;SDS011;62662;56.788;23.942;2022-09-12T01:55:44;4.32;;;3.78;;
57105;SDS011;62662;56.788;23.942;2022-09-12T01:58:21;4.10;;;3.42;;
57105;SDS011;62662;56.788;23.942;2022-09-12T02:00:57;3.67;;;3.22;;
57105;SDS011;62662;56.788;23.942;2022-09-12T02:03:37;4.45;;;3.25;;
57105;SDS011;62662;56.788;23.942;2022-09-12T02:08:45;4.03;;;3.25;;
57105;SDS011;62662;56.788;23.942;2022-09-12T02:11:18;3.60;;;3.30;;
57105;SDS011;62662;56.788;23.942;2022-09-12T02:19:08;4.70;;;3.35;;
57105;SDS011;62662;56.788;23.942;2022-09-12T02:21:41;4.15;;;3.75;;
57105;SDS011;62662;56.788;23.942;2022-09-12T02:24:13;3.78;;;3.30;;
57105;SDS011;62662;56.788;23.942;2022-09-12T02:26:49;5.93;;;3.22;;
57105;SDS011;62662;56.788;23.942;2022-09-12T02:29:21;4.13;;;3.22;;
57105;SDS011;62662;56.788;23.942;2022-09-12T02:31:50;3.63;;;2.92;;
57105;SDS011;62662;56.788;23.942;2022-09-12T02:34:38;3.47;;;3.17;;
57105;SDS011;62662;56.788;23.942;2022-09-12T02:39:44;3.42;;;2.85;;
57105;SDS011;62662;56.788;23.942;2022-09-12T02:42:11;3.50;;;2.88;;
57105;SDS011;62662;56.788;23.942;2022-09-12T02:44:39;4.75;;;2.95;;
57105;SDS011;62662;56.788;23.942;2022-09-12T02:47:11;3.17;;;2.88;;
57105;SDS011;62662;56.788;23.942;2022-09-12T02:49:42;3.53;;;3.22;;
57105;SDS011;62662;56.788;23.942;2022-09-12T02:52:10;4.40;;;3.25;;
57105;SDS011;62662;56.788;23.942;2022-09-12T02:54:37;3.63;;;3.17;;
57105;SDS011;62662;56.788;23.942;2022-09-12T02:57:13;3.97;;;3.13;;
57105;SDS011;62662;56.788;23.942;2022-09-12T02:59:47;5.22;;;3.42;;
57105;SDS011;62662;56.788;23.942;2022-09-12T03:26:45;3.70;;;2.90;;
57105;SDS011;62662;56.788;23.942;2022-09-12T03:29:20;3.53;;;3.05;;
57105;SDS011;62662;56.788;23.942;2022-09-12T03:31:54;3.35;;;3.05;;
57105;SDS011;62662;56.788;23.942;2022-09-12T03:34:23;2.60;;;2.40;;
57105;SDS011;62662;56.788;23.942;2022-09-12T03:36:51;3.53;;;2.67;;
57105;SDS011;62662;56.788;23.942;2022-09-12T03:39:21;3.10;;;2.75;;
57105;SDS011;62662;56.788;23.942;2022-09-12T03:41:50;4.32;;;3.25;;
57105;SDS011;62662;56.788;23.942;2022-09-12T03:44:17;4.70;;;2.85;;
57105;SDS011;62662;56.788;23.942;2022-09-12T03:46:44;3.50;;;2.97;;
57105;SDS011;62662;56.788;23.942;2022-09-12T03:49:11;3.30;;;2.90;;
57105;SDS011;62662;56.788;23.942;2022-09-12T03:51:38;3.20;;;2.90;;
57105;SDS011;62662;56.788;23.942;2022-09-12T03:54:06;3.53;;;3.22;;
57105;SDS011;62662;56.788;23.942;2022-09-12T03:56:33;3.70;;;3.30;;
57105;SDS011;62662;56.788;23.942;2022-09-12T03:59:03;3.40;;;3.10;;
57105;SDS011;62662;56.788;23.942;2022-09-12T04:01:32;3.55;;;2.67;;
57105;SDS011;62662;56.788;23.942;2022-09-12T04:03:59;3.00;;;2.70;;
57105;SDS011;62662;56.788;23.942;2022-09-12T04:06:26;3.72;;;2.58;;
57105;SDS011;62662;56.788;23.942;2022-09-12T04:08:53;3.33;;;3.00;;
57105;SDS011;62662;56.788;23.942;2022-09-12T04:11:20;3.55;;;3.17;;
57105;SDS011;62662;56.788;23.942;2022-09-12T04:13:48;5.07;;;3.22;;
57105;SDS011;62662;56.788;23.942;2022-09-12T04:16:16;3.38;;;3.08;;
57105;SDS011;62662;56.788;23.942;2022-09-12T04:18:44;4.70;;;2.47;;
57105;SDS011;62662;56.788;23.942;2022-09-12T04:21:16;4.55;;;2.90;;
57105;SDS011;62662;56.788;23.942;2022-09-12T04:23:45;2.90;;;2.60;;
57105;SDS011;62662;56.788;23.942;2022-09-12T04:26:12;3.42;;;3.05;;
57105;SDS011;62662;56.788;23.942;2022-09-12T04:28:40;3.55;;;3.17;;
57105;SDS011;62662;56.788;23.942;2022-09-12T04:31:08;3.60;;;2.92;;
57105;SDS011;62662;56.788;23.942;2022-09-12T04:33:41;3.55;;;3.22;;
57105;SDS011;62662;56.788;23.942;2022-09-12T04:36:13;4.45;;;3.58;;
57105;SDS011;62662;56.788;23.942;2022-09-12T04:38:43;4.72;;;3.13;;
57105;SDS011;62662;56.788;23.942;2022-09-12T04:41:13;5.00;;;3.28;;
57105;SDS011;62662;56.788;23.942;2022-09-12T04:43:41;3.63;;;2.90;;
57105;SDS011;62662;56.788;23.942;2022-09-12T04:46:12;5.05;;;3.17;;
57105;SDS011;62662;56.788;23.942;2022-09-12T04:48:49;4.70;;;3.47;;
57105;SDS011;62662;56.788;23.942;2022-09-12T04:51:25;3.92;;;2.95;;
57105;SDS011;62662;56.788;23.942;2022-09-12T04:53:56;3.10;;;2.80;;
57105;SDS011;62662;56.788;23.942;2022-09-12T04:56:40;3.50;;;3.20;;
57105;SDS011;62662;56.788;23.942;2022-09-12T04:59:36;3.28;;;2.85;;
57105;SDS011;62662;56.788;23.942;2022-09-12T05:15:02;4.25;;;2.80;;
57105;SDS011;62662;56.788;23.942;2022-09-12T05:20:47;6.45;;;3.08;;
57105;SDS011;62662;56.788;23.942;2022-09-12T05:24:26;3.35;;;2.92;;
57105;SDS011;62662;56.788;23.942;2022-09-12T05:27:21;4.47;;;3.03;;
57105;SDS011;62662;56.788;23.942;2022-09-12T05:36:58;2.92;;;2.63;;
57105;SDS011;62662;56.788;23.942;2022-09-12T06:07:23;6.47;;;4.10;;
57105;SDS011;62662;56.788;23.942;2022-09-12T06:10:44;5.50;;;3.22;;
57105;SDS011;62662;56.788;23.942;2022-09-12T06:13:43;4.50;;;3.40;;
57105;SDS011;62662;56.788;23.942;2022-09-12T06:23:43;3.72;;;2.88;;
57105;SDS011;62662;56.788;23.942;2022-09-12T06:26:47;3.15;;;2.50;;
57105;SDS011;62662;56.788;23.942;2022-09-12T06:29:29;4.43;;;2.80;;
57105;SDS011;62662;56.788;23.942;2022-09-12T06:32:53;4.47;;;2.78;;
57105;SDS011;62662;56.788;23.942;2022-09-12T06:35:35;4.03;;;2.55;;
57105;SDS011;62662;56.788;23.942;2022-09-12T06:38:03;5.55;;;2.50;;
57105;SDS011;62662;56.788;23.942;2022-09-12T06:43:52;2.83;;;2.08;;
57105;SDS011;62662;56.788;23.942;2022-09-12T06:47:33;3.90;;;2.22;;
57105;SDS011;62662;56.788;23.942;2022-09-12T06:51:23;3.53;;;2.30;;
57105;SDS011;62662;56.788;23.942;2022-09-12T07:29:28;7.60;;;2.70;;
57105;SDS011;62662;56.788;23.942;2022-09-12T07:39:14;3.35;;;2.53;;
57105;SDS011;62662;56.788;23.942;2022-09-12T08:53:52;2.67;;;1.80;;
57105;SDS011;62662;56.788;23.942;2022-09-12T09:21:13;2.20;;;2.00;;
57105;SDS011;62662;56.788;23.942;2022-09-12T09:38:00;4.00;;;1.80;;
57105;SDS011;62662;56.788;23.942;2022-09-12T10:25:14;3.75;;;2.00;;
57105;SDS011;62662;56.788;23.942;2022-09-12T11:41:35;1.90;;;1.70;;
57105;SDS011;62662;56.788;23.942;2022-09-12T11:48:31;2.85;;;1.65;;
57105;SDS011;62662;56.788;23.942;2022-09-12T11:58:26;3.17;;;1.92;;
57105;SDS011;62662;56.788;23.942;2022-09-12T12:01:34;4.68;;;2.10;;
57105;SDS011;62662;56.788;23.942;2022-09-12T12:12:02;9.35;;;2.78;;
57105;SDS011;62662;56.788;23.942;2022-09-12T12:15:12;3.33;;;2.28;;
57105;SDS011;62662;56.788;23.942;2022-09-12T12:17:58;7.15;;;2.58;;
57105;SDS011;62662;56.788;23.942;2022-09-12T12:20:55;2.15;;;1.55;;
57105;SDS011;62662;56.788;23.942;2022-09-12T12:24:00;4.30;;;1.80;;
57105;SDS011;62662;56.788;23.942;2022-09-12T12:29:11;2.60;;;1.95;;
57105;SDS011;62662;56.788;23.942;2022-09-12T12:50:03;3.92;;;1.90;;
57105;SDS011;62662;56.788;23.942;2022-09-12T12:55:24;4.57;;;2.10;;
57105;SDS011;62662;56.788;23.942;2022-09-12T12:58:06;5.28;;;2.20;;
57105;SDS011;62662;56.788;23.942;2022-09-12T13:01:02;2.38;;;1.60;;
57105;SDS011;62662;56.788;23.942;2022-09-12T13:03:33;3.15;;;2.10;;
57105;SDS011;62662;56.788;23.942;2022-09-12T13:06:02;3.28;;;2.35;;
57105;SDS011;62662;56.788;23.942;2022-09-12T13:08:37;3.35;;;2.03;;
57105;SDS011;62662;56.788;23.942;2022-09-12T13:11:17;3.78;;;2.20;;
57105;SDS011;62662;56.788;23.942;2022-09-12T13:14:00;9.20;;;2.47;;
57105;SDS011;62662;56.788;23.942;2022-09-12T13:19:21;3.83;;;1.95;;
57105;SDS011;62662;56.788;23.942;2022-09-12T13:22:02;5.40;;;2.20;;
57105;SDS011;62662;56.788;23.942;2022-09-12T13:24:32;5.00;;;2.63;;
57105;SDS011;62662;56.788;23.942;2022-09-12T13:26:59;3.75;;;1.80;;
57105;SDS011;62662;56.788;23.942;2022-09-12T13:29:27;2.70;;;1.92;;
57105;SDS011;62662;56.788;23.942;2022-09-12T13:31:55;2.83;;;1.80;;
57105;SDS011;62662;56.788;23.942;2022-09-12T13:34:26;3.20;;;1.92;;
57105;SDS011;62662;56.788;23.942;2022-09-12T13:43:07;4.28;;;2.15;;
57105;SDS011;62662;56.788;23.942;2022-09-12T13:45:40;5.63;;;2.08;;
57105;SDS011;62662;56.788;23.942;2022-09-12T13:48:17;3.17;;;2.17;;
57105;SDS011;62662;56.788;23.942;2022-09-12T13:50:51;3.13;;;2.30;;
57105;SDS011;62662;56.788;23.942;2022-09-12T13:53:22;4.68;;;2.58;;
57105;SDS011;62662;56.788;23.942;2022-09-12T13:55:53;3.95;;;2.63;;
57105;SDS011;62662;56.788;23.942;2022-09-12T13:58:29;4.97;;;2.42;;
57105;SDS011;62662;56.788;23.942;2022-09-12T14:01:06;7.10;;;2.50;;
57105;SDS011;62662;56.788;23.942;2022-09-12T14:06:47;2.45;;;1.92;;
57105;SDS011;62662;56.788;23.942;2022-09-12T14:11:50;5.40;;;2.25;;
57105;SDS011;62662;56.788;23.942;2022-09-12T14:16:58;4.70;;;2.47;;
57105;SDS011;62662;56.788;23.942;2022-09-12T14:19:26;4.25;;;2.78;;
57105;SDS011;62662;56.788;23.942;2022-09-12T14:21:55;8.32;;;2.75;;
57105;SDS011;62662;56.788;23.942;2022-09-12T14:24:23;3.83;;;2.88;;
57105;SDS011;62662;56.788;23.942;2022-09-12T14:26:53;5.38;;;2.90;;
57105;SDS011;62662;56.788;23.942;2022-09-12T14:29:22;4.75;;;2.58;;
57105;SDS011;62662;56.788;23.942;2022-09-12T14:32:01;3.50;;;2.67;;
57105;SDS011;62662;56.788;23.942;2022-09-12T14:34:30;8.00;;;3.35;;
57105;SDS011;62662;56.788;23.942;2022-09-12T14:36:57;4.60;;;3.38;;
57105;SDS011;62662;56.788;23.942;2022-09-12T14:39:27;7.40;;;4.80;;
57105;SDS011;62662;56.788;23.942;2022-09-12T14:42:21;6.72;;;4.20;;
57105;SDS011;62662;56.788;23.942;2022-09-12T14:44:55;5.07;;;3.92;;
57105;SDS011;62662;56.788;23.942;2022-09-12T14:47:27;7.20;;;3.15;;
57105;SDS011;62662;56.788;23.942;2022-09-12T14:50:16;4.53;;;2.72;;
57105;SDS011;62662;56.788;23.942;2022-09-12T14:52:46;3.13;;;2.80;;
57105;SDS011;62662;56.788;23.942;2022-09-12T14:55:52;3.20;;;2.50;;
57105;SDS011;62662;56.788;23.942;2022-09-12T14:58:25;3.83;;;2.65;;
57105;SDS011;62662;56.788;23.942;2022-09-12T15:01:00;2.97;;;2.53;;
57105;SDS011;62662;56.788;23.942;2022-09-12T15:05:59;4.22;;;2.30;;
57105;SDS011;62662;56.788;23.942;2022-09-12T15:08:29;3.60;;;2.03;;
57105;SDS011;62662;56.788;23.942;2022-09-12T15:10:58;3.90;;;2.38;;
57105;SDS011;62662;56.788;23.942;2022-09-12T15:13:26;2.17;;;1.65;;
57105;SDS011;62662;56.788;23.942;2022-09-12T15:15:56;2.25;;;1.90;;
57105;SDS011;62662;56.788;23.942;2022-09-12T15:18:25;2.38;;;1.90;;
57105;SDS011;62662;56.788;23.942;2022-09-12T15:20:54;4.22;;;2.40;;
57105;SDS011;62662;56.788;23.942;2022-09-12T15:23:47;2.55;;;1.92;;
57105;SDS011;62662;56.788;23.942;2022-09-12T15:26:19;2.97;;;2.25;;
57105;SDS011;62662;56.788;23.942;2022-09-12T15:28:48;5.90;;;2.75;;
57105;SDS011;62662;56.788;23.942;2022-09-12T15:33:46;4.95;;;3.63;;
57105;SDS011;62662;56.788;23.942;2022-09-12T15:36:15;4.93;;;4.15;;
57105;SDS011;62662;56.788;23.942;2022-09-12T15:38:44;5.32;;;4.15;;
57105;SDS011;62662;56.788;23.942;2022-09-12T15:41:16;4.95;;;3.60;;
57105;SDS011;62662;56.788;23.942;2022-09-12T15:43:46;8.10;;;3.63;;
57105;SDS011;62662;56.788;23.942;2022-09-12T15:46:15;4.68;;;3.17;;
57105;SDS011;62662;56.788;23.942;2022-09-12T15:48:45;7.60;;;2.45;;
57105;SDS011;62662;56.788;23.942;2022-09-12T15:51:16;5.82;;;2.70;;
57105;SDS011;62662;56.788;23.942;2022-09-12T15:53:46;3.47;;;2.20;;
57105;SDS011;62662;56.788;23.942;2022-09-12T15:56:15;2.50;;;2.15;;
57105;SDS011;62662;56.788;23.942;2022-09-12T15:58:43;3.30;;;2.28;;
57105;SDS011;62662;56.788;23.942;2022-09-12T16:01:24;2.65;;;1.95;;
57105;SDS011;62662;56.788;23.942;2022-09-12T16:03:52;2.65;;;1.90;;
57105;SDS011;62662;56.788;23.942;2022-09-12T16:06:19;2.45;;;2.08;;
57105;SDS011;62662;56.788;23.942;2022-09-12T16:08:47;3.65;;;2.30;;
57105;SDS011;62662;56.788;23.942;2022-09-12T16:11:25;3.40;;;2.67;;
57105;SDS011;62662;56.788;23.942;2022-09-12T16:13:52;4.15;;;3.20;;
57105;SDS011;62662;56.788;23.942;2022-09-12T16:16:22;4.38;;;2.92;;
57105;SDS011;62662;56.788;23.942;2022-09-12T16:18:49;5.45;;;3.30;;
57105;SDS011;62662;56.788;23.942;2022-09-12T16:21:17;5.18;;;3.88;;
57105;SDS011;62662;56.788;23.942;2022-09-12T16:23:44;6.60;;;3.63;;
57105;SDS011;62662;56.788;23.942;2022-09-12T16:26:13;8.82;;;3.45;;
57105;SDS011;62662;56.788;23.942;2022-09-12T16:28:41;6.05;;;3.53;;
57105;SDS011;62662;56.788;23.942;2022-09-12T16:31:09;5.30;;;4.00;;
57105;SDS011;62662;56.788;23.942;2022-09-12T16:33:38;9.23;;;5.43;;
57105;SDS011;62662;56.788;23.942;2022-09-12T16:36:06;9.93;;;5.38;;
57105;SDS011;62662;56.788;23.942;2022-09-12T16:38:41;9.32;;;5.25;;
57105;SDS011;62662;56.788;23.942;2022-09-12T16:43:38;3.75;;;2.90;;
57105;SDS011;62662;56.788;23.942;2022-09-12T16:46:07;5.18;;;3.28;;
57105;SDS011;62662;56.788;23.942;2022-09-12T16:48:45;6.15;;;3.00;;
57105;SDS011;62662;56.788;23.942;2022-09-12T16:51:20;4.22;;;2.75;;
57105;SDS011;62662;56.788;23.942;2022-09-12T16:53:49;3.22;;;2.55;;
57105;SDS011;62662;56.788;23.942;2022-09-12T16:56:16;3.35;;;1.98;;
57105;SDS011;62662;56.788;23.942;2022-09-12T16:58:44;2.72;;;2.40;;
57105;SDS011;62662;56.788;23.942;2022-09-12T17:01:15;3.65;;;2.05;;
57105;SDS011;62662;56.788;23.942;2022-09-12T17:03:44;2.60;;;2.08;;
57105;SDS011;62662;56.788;23.942;2022-09-12T17:06:13;2.35;;;2.00;;
57105;SDS011;62662;56.788;23.942;2022-09-12T17:08:42;4.07;;;1.88;;
57105;SDS011;62662;56.788;23.942;2022-09-12T17:11:12;4.15;;;1.90;;
57105;SDS011;62662;56.788;23.942;2022-09-12T17:13:44;8.60;;;5.43;;
57105;SDS011;62662;56.788;23.942;2022-09-12T17:16:30;4.07;;;2.38;;
57105;SDS011;62662;56.788;23.942;2022-09-12T17:19:02;3.50;;;1.98;;
57105;SDS011;62662;56.788;23.942;2022-09-12T17:21:31;2.50;;;2.15;;
57105;SDS011;62662;56.788;23.942;2022-09-12T17:23:58;3.25;;;2.40;;
57105;SDS011;62662;56.788;23.942;2022-09-12T17:26:25;6.45;;;2.40;;
57105;SDS011;62662;56.788;23.942;2022-09-12T17:28:52;2.97;;;2.45;;
57105;SDS011;62662;56.788;23.942;2022-09-12T17:31:19;3.42;;;2.45;;
57105;SDS011;62662;56.788;23.942;2022-09-12T17:33:46;3.75;;;2.53;;
57105;SDS011;62662;56.788;23.942;2022-09-12T17:36:15;4.95;;;2.90;;
57105;SDS011;62662;56.788;23.942;2022-09-12T17:38:43;4.35;;;2.92;;
57105;SDS011;62662;56.788;23.942;2022-09-12T17:41:13;3.55;;;2.50;;
57105;SDS011;62662;56.788;23.942;2022-09-12T17:43:43;5.47;;;3.08;;
57105;SDS011;62662;56.788;23.942;2022-09-12T17:46:18;4.18;;;3.17;;
57105;SDS011;62662;56.788;23.942;2022-09-12T17:48:52;7.53;;;3.58;;
57105;SDS011;62662;56.788;23.942;2022-09-12T17:51:22;7.03;;;4.18;;
57105;SDS011;62662;56.788;23.942;2022-09-12T17:53:54;7.18;;;4.05;;
57105;SDS011;62662;56.788;23.942;2022-09-12T17:56:24;6.80;;;4.63;;
57105;SDS011;62662;56.788;23.942;2022-09-12T17:58:54;7.20;;;4.22;;
57105;SDS011;62662;56.788;23.942;2022-09-12T18:01:22;6.57;;;3.97;;
57105;SDS011;62662;56.788;23.942;2022-09-12T18:04:09;6.60;;;3.88;;
57105;SDS011;62662;56.788;23.942;2022-09-12T18:06:37;6.93;;;4.30;;
57105;SDS011;62662;56.788;23.942;2022-09-12T18:09:06;6.65;;;4.10;;
57105;SDS011;62662;56.788;23.942;2022-09-12T18:11:34;6.07;;;4.32;;
57105;SDS011;62662;56.788;23.942;2022-09-12T18:14:02;7.03;;;4.80;;
57105;SDS011;62662;56.788;23.942;2022-09-12T18:16:30;7.70;;;4.97;;
57105;SDS011;62662;56.788;23.942;2022-09-12T18:18:57;7.03;;;5.10;;
57105;SDS011;62662;56.788;23.942;2022-09-12T18:21:27;9.48;;;4.75;;
57105;SDS011;62662;56.788;23.942;2022-09-12T18:23:55;7.38;;;5.05;;
57105;SDS011;62662;56.788;23.942;2022-09-12T18:26:25;5.47;;;3.90;;
57105;SDS011;62662;56.788;23.942;2022-09-12T18:28:53;4.93;;;3.45;;
57105;SDS011;62662;56.788;23.942;2022-09-12T18:31:22;3.65;;;2.58;;
57105;SDS011;62662;56.788;23.942;2022-09-12T18:33:50;5.60;;;2.65;;
57105;SDS011;62662;56.788;23.942;2022-09-12T18:36:18;6.05;;;2.88;;
57105;SDS011;62662;56.788;23.942;2022-09-12T18:38:46;5.45;;;2.90;;
57105;SDS011;62662;56.788;23.942;2022-09-12T18:41:15;4.03;;;3.10;;
57105;SDS011;62662;56.788;23.942;2022-09-12T18:43:44;8.10;;;3.53;;
57105;SDS011;62662;56.788;23.942;2022-09-12T18:46:13;4.75;;;3.15;;
57105;SDS011;62662;56.788;23.942;2022-09-12T18:48:42;9.32;;;3.40;;
57105;SDS011;62662;56.788;23.942;2022-09-12T18:51:11;4.30;;;3.20;;
57105;SDS011;62662;56.788;23.942;2022-09-12T18:53:40;6.90;;;3.35;;
57105;SDS011;62662;56.788;23.942;2022-09-12T18:56:11;4.20;;;2.90;;
57105;SDS011;62662;56.788;23.942;2022-09-12T18:58:40;5.38;;;3.42;;
57105;SDS011;62662;56.788;23.942;2022-09-12T19:01:09;3.60;;;3.00;;
57105;SDS011;62662;56.788;23.942;2022-09-12T19:03:38;5.05;;;3.42;;
57105;SDS011;62662;56.788;23.942;2022-09-12T19:06:27;6.45;;;3.08;;
57105;SDS011;62662;56.788;23.942;2022-09-12T19:08:54;4.22;;;3.50;;
57105;SDS011;62662;56.788;23.942;2022-09-12T19:11:23;3.72;;;3.13;;
57105;SDS011;62662;56.788;23.942;2022-09-12T19:13:52;3.95;;;2.92;;
57105;SDS011;62662;56.788;23.942;2022-09-12T19:16:21;4.30;;;3.10;;
57105;SDS011;62662;56.788;23.942;2022-09-12T19:18:50;5.15;;;2.92;;
57105;SDS011;62662;56.788;23.942;2022-09-12T19:21:21;4.00;;;3.10;;
57105;SDS011;62662;56.788;23.942;2022-09-12T19:23:50;4.38;;;2.78;;
57105;SDS011;62662;56.788;23.942;2022-09-12T19:26:19;4.00;;;3.20;;
57105;SDS011;62662;56.788;23.942;2022-09-12T19:28:46;3.90;;;3.30;;
57105;SDS011;62662;56.788;23.942;2022-09-12T19:31:14;5.65;;;3.35;;
57105;SDS011;62662;56.788;23.942;2022-09-12T19:33:44;4.10;;;3.30;;
57105;SDS011;62662;56.788;23.942;2022-09-12T19:36:13;6.20;;;3.03;;
57105;SDS011;62662;56.788;23.942;2022-09-12T19:39:03;6.25;;;3.50;;
57105;SDS011;62662;56.788;23.942;2022-09-12T19:41:31;4.70;;;3.60;;
57105;SDS011;62662;56.788;23.942;2022-09-12T19:43:59;4.40;;;3.33;;
57105;SDS011;62662;56.788;23.942;2022-09-12T19:46:26;5.47;;;3.70;;
57105;SDS011;62662;56.788;23.942;2022-09-12T19:48:53;7.07;;;3.60;;
57105;SDS011;62662;56.788;23.942;2022-09-12T19:51:21;4.05;;;3.35;;
57105;SDS011;62662;56.788;23.942;2022-09-12T19:53:49;6.00;;;3.90;;
57105;SDS011;62662;56.788;23.942;2022-09-12T19:56:17;5.35;;;3.95;;
57105;SDS011;62662;56.788;23.942;2022-09-12T19:58:45;5.78;;;3.83;;
57105;SDS011;62662;56.788;23.942;2022-09-12T20:01:21;4.73;;;3.83;;
57105;SDS011;62662;56.788;23.942;2022-09-12T20:03:50;5.18;;;4.07;;
57105;SDS011;62662;56.788;23.942;2022-09-12T20:06:21;6.20;;;4.10;;
57105;SDS011;62662;56.788;23.942;2022-09-12T20:08:48;6.55;;;3.72;;
57105;SDS011;62662;56.788;23.942;2022-09-12T20:11:18;4.50;;;3.40;;
57105;SDS011;62662;56.788;23.942;2022-09-12T20:13:47;6.68;;;3.80;;
57105;SDS011;62662;56.788;23.942;2022-09-12T20:16:15;5.25;;;4.13;;
57105;SDS011;62662;56.788;23.942;2022-09-12T20:18:50;4.70;;;3.97;;
57105;SDS011;62662;56.788;23.942;2022-09-12T20:21:20;4.60;;;4.00;;
57105;SDS011;62662;56.788;23.942;2022-09-12T20:24:04;5.22;;;3.80;;
57105;SDS011;62662;56.788;23.942;2022-09-12T20:26:33;5.57;;;4.00;;
57105;SDS011;62662;56.788;23.942;2022-09-12T20:28:59;5.82;;;4.13;;
57105;SDS011;62662;56.788;23.942;2022-09-12T20:31:27;5.40;;;3.92;;
57105;SDS011;62662;56.788;23.942;2022-09-12T20:33:55;7.30;;;4.78;;
57105;SDS011;62662;56.788;23.942;2022-09-12T20:36:23;14.95;;;6.95;;
57105;SDS011;62662;56.788;23.942;2022-09-12T20:38:51;20.42;;;12.13;;
57105;SDS011;62662;56.788;23.942;2022-09-12T20:41:23;18.63;;;9.52;;
57105;SDS011;62662;56.788;23.942;2022-09-12T20:43:52;11.77;;;7.35;;
57105;SDS011;62662;56.788;23.942;2022-09-12T20:46:21;13.85;;;8.88;;
57105;SDS011;62662;56.788;23.942;2022-09-12T20:48:50;11.40;;;7.88;;
57105;SDS011;62662;56.788;23.942;2022-09-12T20:51:21;13.10;;;8.65;;
57105;SDS011;62662;56.788;23.942;2022-09-12T20:53:52;13.95;;;7.88;;
57105;SDS011;62662;56.788;23.942;2022-09-12T20:56:21;14.38;;;7.97;;
57105;SDS011;62662;56.788;23.942;2022-09-12T20:58:49;12.63;;;8.27;;
57105;SDS011;62662;56.788;23.942;2022-09-12T21:01:16;12.15;;;7.70;;
57105;SDS011;62662;56.788;23.942;2022-09-12T21:03:43;13.57;;;7.07;;
57105;SDS011;62662;56.788;23.942;2022-09-12T21:06:12;11.27;;;7.43;;
57105;SDS011;62662;56.788;23.942;2022-09-12T21:08:44;8.18;;;5.70;;
57105;SDS011;62662;56.788;23.942;2022-09-12T21:11:12;8.15;;;5.90;;
57105;SDS011;62662;56.788;23.942;2022-09-12T21:13:40;8.35;;;5.65;;
57105;SDS011;62662;56.788;23.942;2022-09-12T21:16:11;5.50;;;4.20;;
57105;SDS011;62662;56.788;23.942;2022-09-12T21:18:40;4.65;;;3.40;;
57105;SDS011;62662;56.788;23.942;2022-09-12T21:21:09;4.90;;;3.53;;
57105;SDS011;62662;56.788;23.942;2022-09-12T21:23:37;4.47;;;3.50;;
57105;SDS011;62662;56.788;23.942;2022-09-12T21:26:04;4.25;;;3.47;;
57105;SDS011;62662;56.788;23.942;2022-09-12T21:28:31;4.68;;;3.10;;
57105;SDS011;62662;56.788;23.942;2022-09-12T21:30:59;3.20;;;2.78;;
57105;SDS011;62662;56.788;23.942;2022-09-12T21:33:26;3.65;;;2.67;;
57105;SDS011;62662;56.788;23.942;2022-09-12T21:35:53;3.70;;;2.90;;
57105;SDS011;62662;56.788;23.942;2022-09-12T21:38:20;4.15;;;2.83;;
57105;SDS011;62662;56.788;23.942;2022-09-12T21:40:47;4.78;;;3.00;;
57105;SDS011;62662;56.788;23.942;2022-09-12T21:43:14;3.60;;;2.72;;
57105;SDS011;62662;56.788;23.942;2022-09-12T21:45:41;5.07;;;2.90;;
57105;SDS011;62662;56.788;23.942;2022-09-12T21:48:08;3.10;;;2.80;;
57105;SDS011;62662;56.788;23.942;2022-09-12T21:50:35;3.33;;;2.70;;
57105;SDS011;62662;56.788;23.942;2022-09-12T21:53:02;4.53;;;2.83;;
57105;SDS011;62662;56.788;23.942;2022-09-12T21:55:29;4.00;;;2.88;;
57105;SDS011;62662;56.788;23.942;2022-09-12T21:57:56;6.13;;;3.17;;
57105;SDS011;62662;56.788;23.942;2022-09-12T22:00:24;9.30;;;3.00;;
57105;SDS011;62662;56.788;23.942;2022-09-12T22:02:51;3.95;;;3.10;;
57105;SDS011;62662;56.788;23.942;2022-09-12T22:05:19;3.85;;;2.83;;
57105;SDS011;62662;56.788;23.942;2022-09-12T22:07:47;4.13;;;3.00;;
57105;SDS011;62662;56.788;23.942;2022-09-12T22:10:14;3.58;;;3.00;;
57105;SDS011;62662;56.788;23.942;2022-09-12T22:12:41;3.50;;;3.00;;
57105;SDS011;62662;56.788;23.942;2022-09-12T22:15:11;3.35;;;2.88;;
57105;SDS011;62662;56.788;23.942;2022-09-12T22:17:58;6.35;;;3.00;;
57105;SDS011;62662;56.788;23.942;2022-09-12T22:20:25;4.35;;;2.67;;
57105;SDS011;62662;56.788;23.942;2022-09-12T22:22:52;3.50;;;2.90;;
57105;SDS011;62662;56.788;23.942;2022-09-12T22:25:38;3.67;;;2.92;;
57105;SDS011;62662;56.788;23.942;2022-09-12T22:28:05;3.60;;;2.45;;
57105;SDS011;62662;56.788;23.942;2022-09-12T22:30:32;3.33;;;2.55;;
57105;SDS011;62662;56.788;23.942;2022-09-12T22:32:59;2.83;;;2.55;;
57105;SDS011;62662;56.788;23.942;2022-09-12T22:35:26;2.90;;;2.63;;
57105;SDS011;62662;56.788;23.942;2022-09-12T22:37:53;4.20;;;2.80;;
57105;SDS011;62662;56.788;23.942;2022-09-12T22:40:20;4.07;;;3.38;;
57105;SDS011;62662;56.788;23.942;2022-09-12T22:42:49;4.55;;;2.95;;
57105;SDS011;62662;56.788;23.942;2022-09-12T22:45:17;3.05;;;2.58;;
57105;SDS011;62662;56.788;23.942;2022-09-12T22:47:45;3.28;;;2.97;;
57105;SDS011;62662;56.788;23.942;2022-09-12T22:50:12;4.35;;;2.78;;